Time;durP1;ratioP1;P1;durP2;ratioP2;P2;SDS_P1;SDS_P2;PMS_P1;PMS_P2;Temp;Humidity;BMP_temperature;BMP_pressure;BME280_temperature;BME280_humidity;BME280_pressure;Samples;Min_cycle;Max_cycle;Signal;HPM_P1;HPM_P2
2022/06/11 00:01:46;;;;;;;21.87;18.95;;;;;;;26.11;53.22;99627.06;1778293;78;21068;-60
2022/06/11 00:04:18;;;;;;;21.45;19.20;;;;;;;26.09;53.29;99628.69;1761061;79;21558;-59
2022/06/11 00:06:49;;;;;;;20.60;18.50;;;;;;;26.07;53.17;99627.59;1797333;78;21462;-60
2022/06/11 00:09:17;;;;;;;20.55;18.35;;;;;;;26.06;53.19;99629.25;1795941;78;21101;-60
2022/06/11 00:11:44;;;;;;;22.05;19.12;;;;;;;26.05;53.16;99623.52;1779054;78;21012;-60
2022/06/11 00:14:12;;;;;;;20.52;18.50;;;;;;;26.03;53.30;99625.70;1821804;78;21005;-61
2022/06/11 00:16:38;;;;;;;20.32;18.32;;;;;;;26.03;53.15;99623.79;1796050;78;21101;-60
2022/06/11 00:19:06;;;;;;;20.70;18.60;;;;;;;26.02;53.13;99622.70;1781160;78;21089;-59
2022/06/11 00:21:36;;;;;;;21.00;18.80;;;;;;;26.01;53.08;99619.72;1779662;79;21910;-61
2022/06/11 00:24:03;;;;;;;20.17;18.12;;;;;;;26.00;52.92;99620.27;1763241;80;21020;-59
2022/06/11 00:26:31;;;;;;;20.60;18.50;;;;;;;25.98;53.10;99615.64;1774459;79;21084;-59
2022/06/11 00:28:58;;;;;;;20.35;18.30;;;;;;;25.98;53.02;99619.73;1778889;79;21016;-59
2022/06/11 00:31:24;;;;;;;20.10;18.07;;;;;;;25.97;52.95;99618.64;1772025;79;21084;-59
2022/06/11 00:33:51;;;;;;;21.12;19.00;;;;;;;25.97;52.91;99613.20;1785258;79;21133;-59
2022/06/11 00:36:18;;;;;;;20.40;18.40;;;;;;;25.97;52.98;99622.72;1767321;79;21090;-60
2022/06/11 00:38:46;;;;;;;21.15;19.05;;;;;;;25.96;53.03;99621.91;1766618;79;21680;-60
2022/06/11 00:41:15;;;;;;;20.82;18.62;;;;;;;25.96;52.87;99622.43;1769343;79;21937;-60
2022/06/11 00:43:42;;;;;;;19.75;17.85;;;;;;;25.95;52.87;99623.53;1763246;79;21076;-61
2022/06/11 00:46:42;;;;;;;19.80;17.65;;;;;;;25.94;52.83;99623.25;1775289;79;21090;-59
2022/06/11 00:49:21;;;;;;;20.08;18.00;;;;;;;25.92;52.79;99622.71;1772307;79;21555;-59
2022/06/11 00:51:50;;;;;;;20.95;18.85;;;;;;;25.90;52.78;99628.39;1770654;79;21506;-60
2022/06/11 00:54:21;;;;;;;20.70;18.57;;;;;;;25.88;52.87;99632.77;1771358;79;21193;-59
2022/06/11 00:56:53;;;;;;;20.60;18.40;;;;;;;25.87;52.70;99641.20;1773653;79;20997;-59
2022/06/11 00:59:32;;;;;;;20.20;18.10;;;;;;;25.86;52.80;99639.03;1768158;79;21119;-59
2022/06/11 01:01:58;;;;;;;19.80;17.75;;;;;;;25.85;52.70;99640.65;1770144;78;21525;-61
2022/06/11 01:04:49;;;;;;;21.10;18.80;;;;;;;25.83;52.70;99643.64;1770040;79;21141;-59
2022/06/11 01:07:36;;;;;;;20.20;18.30;;;;;;;25.83;52.89;99642.83;1775499;79;21025;-60
2022/06/11 01:10:33;;;;;;;23.47;19.50;;;;;;;25.81;52.82;99645.81;1749101;79;21044;-61
2022/06/11 01:13:19;;;;;;;20.30;18.20;;;;;;;25.80;52.78;99645.53;1748803;79;21156;-60
2022/06/11 01:15:55;;;;;;;24.70;18.82;;;;;;;25.78;52.79;99644.18;1756772;79;21676;-60
2022/06/11 01:18:49;;;;;;;20.65;18.57;;;;;;;25.77;52.76;99652.05;1769646;79;20985;-59
2022/06/11 01:21:25;;;;;;;20.88;18.60;;;;;;;25.75;52.81;99647.42;1749775;81;21084;-59
2022/06/11 01:24:12;;;;;;;21.12;19.12;;;;;;;25.73;52.87;99650.97;1757073;79;21689;-59
2022/06/11 01:27:19;;;;;;;21.42;19.23;;;;;;;25.71;52.82;99649.90;1765651;79;21144;-60
2022/06/11 01:30:04;;;;;;;21.93;19.82;;;;;;;25.70;52.79;99653.69;1761812;79;21128;-60
2022/06/11 01:32:45;;;;;;;20.62;18.62;;;;;;;25.66;52.86;99650.69;1745132;80;20985;-60
2022/06/11 01:35:29;;;;;;;22.40;20.02;;;;;;;25.66;52.86;99653.96;1765808;79;21439;-59
2022/06/11 01:38:07;;;;;;;21.30;19.17;;;;;;;25.64;52.86;99655.59;1750000;79;21098;-61
2022/06/11 01:40:59;;;;;;;21.10;19.00;;;;;;;25.63;52.84;99660.77;1771761;79;22147;-60
2022/06/11 01:43:42;;;;;;;21.57;19.35;;;;;;;25.62;52.85;99661.84;1777823;79;21017;-60
2022/06/11 01:46:20;;;;;;;20.10;17.80;;;;;;;25.61;52.89;99661.58;1783062;79;21033;-60
2022/06/11 01:49:00;;;;;;;21.48;19.27;;;;;;;25.60;52.92;99658.58;1762846;79;21178;-60
2022/06/11 01:52:12;;;;;;;21.20;19.00;;;;;;;25.61;52.90;99660.74;1767254;79;21476;-60
2022/06/11 01:56:38;;;;;;;22.77;20.35;;;;;;;25.63;52.89;99658.57;1788015;78;23347;-61
2022/06/11 01:59:11;;;;;;;21.87;19.52;;;;;;;25.58;52.93;99659.39;1752889;80;20942;-59
2022/06/11 02:01:56;;;;;;;24.18;21.60;;;;;;;25.58;52.92;99662.11;1752641;80;21159;-60
2022/06/11 02:04:33;;;;;;;22.42;20.17;;;;;;;25.57;52.93;99658.30;1754713;80;20946;-61
2022/06/11 02:07:10;;;;;;;21.85;19.27;;;;;;;25.57;52.97;99663.19;1755183;80;21982;-60
2022/06/11 02:09:57;;;;;;;22.58;20.25;;;;;;;25.56;52.93;99664.28;1753341;81;20903;-60
2022/06/11 02:12:35;;;;;;;23.18;20.92;;;;;;;25.55;52.96;99663.19;1681395;80;21084;-60
2022/06/11 02:15:13;;;;;;;22.75;20.57;;;;;;;25.54;52.95;99671.90;1747355;80;21251;-60
2022/06/11 02:17:43;;;;;;;22.75;20.43;;;;;;;25.53;52.89;99666.17;1751503;80;21529;-60
2022/06/11 02:20:28;;;;;;;22.65;20.23;;;;;;;25.53;52.93;99670.25;1754897;80;21010;-61
2022/06/11 02:23:09;;;;;;;23.83;21.48;;;;;;;25.52;52.95;99667.27;1742286;80;21114;-61
2022/06/11 02:25:45;;;;;;;22.30;20.10;;;;;;;25.51;52.99;99670.52;1755183;80;21014;-60
2022/06/11 02:28:15;;;;;;;22.45;20.15;;;;;;;25.52;52.99;99674.07;1747985;80;21173;-59
2022/06/11 02:30:44;;;;;;;21.35;19.35;;;;;;;25.51;52.96;99671.88;1741314;80;21025;-59
2022/06/11 02:33:12;;;;;;;27.15;20.60;;;;;;;25.51;52.95;99680.03;1754722;80;21095;-60
2022/06/11 02:35:54;;;;;;;21.90;19.73;;;;;;;25.52;52.90;99682.23;1746776;80;21026;-59
2022/06/11 02:38:23;;;;;;;22.07;19.77;;;;;;;25.51;52.97;99676.50;1754196;80;21014;-61
2022/06/11 02:41:05;;;;;;;21.73;19.52;;;;;;;25.52;53.00;99678.15;1751409;81;21735;-61
2022/06/11 02:43:32;;;;;;;22.95;20.05;;;;;;;25.52;52.96;99684.95;1753609;81;21541;-60
2022/06/11 02:45:59;;;;;;;23.22;20.82;;;;;;;25.51;52.99;99684.11;1752702;80;21112;-60
2022/06/11 02:48:27;;;;;;;21.85;19.70;;;;;;;25.52;52.96;99684.95;1748497;80;21486;-60
2022/06/11 02:50:54;;;;;;;21.15;19.15;;;;;;;25.52;53.01;99686.31;1752610;80;21025;-60
2022/06/11 02:53:20;;;;;;;23.98;18.62;;;;;;;25.53;53.05;99681.68;1752213;80;21140;-60
2022/06/11 02:55:47;;;;;;;22.52;19.70;;;;;;;25.53;53.08;99681.68;1749688;80;21087;-60
2022/06/11 02:58:14;;;;;;;21.70;19.40;;;;;;;25.54;53.06;99685.50;1732988;80;21057;-60
2022/06/11 03:00:45;;;;;;;25.75;19.95;;;;;;;25.53;53.06;99683.84;1732227;80;21002;-60
2022/06/11 03:03:12;;;;;;;22.37;19.65;;;;;;;25.55;53.06;99687.66;1746785;81;22109;-62
2022/06/11 03:05:38;;;;;;;22.15;19.95;;;;;;;25.54;53.08;99683.33;1736158;80;21131;-60
2022/06/11 03:08:07;;;;;;;22.17;18.90;;;;;;;25.54;53.11;99685.50;1744410;81;21043;-60
2022/06/11 03:10:36;;;;;;;21.70;19.40;;;;;;;25.55;53.02;99679.51;1748843;82;21117;-59
2022/06/11 03:13:02;;;;;;;23.42;19.15;;;;;;;25.56;53.04;99686.59;1747881;80;21042;-60
2022/06/11 03:15:29;;;;;;;22.95;20.50;;;;;;;25.56;53.01;99685.23;1744007;81;21136;-60
2022/06/11 03:17:55;;;;;;;20.40;18.32;;;;;;;25.57;53.04;99682.77;1706085;82;21948;-60
2022/06/11 03:20:26;;;;;;;22.25;19.90;;;;;;;25.57;53.04;99684.12;1743768;80;20995;-61
2022/06/11 03:22:53;;;;;;;20.35;18.25;;;;;;;25.56;53.03;99683.33;1737615;80;20978;-61
2022/06/11 03:25:21;;;;;;;20.65;18.37;;;;;;;25.58;53.00;99683.06;1740593;81;21029;-61
2022/06/11 03:27:50;;;;;;;23.10;19.02;;;;;;;25.59;53.01;99684.68;1731496;80;21030;-62
2022/06/11 03:30:17;;;;;;;19.87;17.82;;;;;;;25.58;53.03;99679.79;1745625;81;21132;-61
2022/06/11 03:32:44;;;;;;;21.93;19.65;;;;;;;25.60;53.02;99678.97;1742585;80;21013;-61
2022/06/11 03:35:10;;;;;;;20.97;18.75;;;;;;;25.60;53.10;99687.13;1736678;80;21533;-61
2022/06/11 03:37:38;;;;;;;21.57;18.30;;;;;;;25.62;53.08;99689.59;1739180;80;21082;-60
2022/06/11 03:40:07;;;;;;;20.30;18.30;;;;;;;25.62;53.04;99686.32;1743509;80;21046;-60
2022/06/11 03:42:34;;;;;;;21.37;18.67;;;;;;;25.63;52.92;99690.69;1749037;82;21754;-60
2022/06/11 03:45:01;;;;;;;20.02;17.57;;;;;;;25.64;52.96;99698.30;1749009;82;21042;-61
2022/06/11 03:47:27;;;;;;;19.67;17.57;;;;;;;25.66;53.28;99698.30;1748514;80;21037;-60
2022/06/11 03:49:54;;;;;;;19.60;17.77;;;;;;;25.68;53.06;99696.13;1748994;82;21066;-61
2022/06/11 03:52:22;;;;;;;20.62;18.23;;;;;;;25.70;53.00;99694.50;1749218;82;21502;-60
2022/06/11 03:54:49;;;;;;;19.90;17.87;;;;;;;25.71;52.92;99694.78;1747896;81;21246;-60
2022/06/11 03:57:16;;;;;;;19.12;17.23;;;;;;;25.74;53.15;99698.86;1751190;81;21097;-61
2022/06/11 03:59:43;;;;;;;25.57;18.00;;;;;;;25.75;53.08;99704.04;1744981;80;22066;-63
2022/06/11 04:02:10;;;;;;;19.67;17.62;;;;;;;25.77;53.13;99692.86;1746912;80;21022;-63
2022/06/11 04:04:36;;;;;;;18.42;16.62;;;;;;;25.79;53.47;99696.16;1748267;80;21018;-63
2022/06/11 04:07:04;;;;;;;19.05;17.05;;;;;;;25.81;53.15;99696.70;1726697;82;21155;-63
2022/06/11 04:09:35;;;;;;;19.20;17.32;;;;;;;25.82;53.19;99703.77;1737104;81;21010;-63
2022/06/11 04:12:03;;;;;;;20.45;17.85;;;;;;;25.83;53.15;99700.78;1751513;81;21061;-63
2022/06/11 04:14:31;;;;;;;22.05;17.27;;;;;;;25.85;53.24;99700.52;1740972;80;21189;-64
2022/06/11 04:17:01;;;;;;;23.05;19.57;;;;;;;25.85;53.22;99697.80;1756799;81;21530;-65
2022/06/11 04:19:31;;;;;;;19.57;17.62;;;;;;;25.87;53.03;99699.70;1756071;81;21123;-65
2022/06/11 04:21:58;;;;;;;20.55;18.32;;;;;;;25.89;52.97;99697.52;1742111;81;21521;-64
2022/06/11 04:24:25;;;;;;;20.00;17.98;;;;;;;25.91;53.01;99696.73;1726660;83;21518;-64
2022/06/11 04:26:54;;;;;;;21.00;18.77;;;;;;;25.93;52.88;99703.28;1745233;81;21089;-63
2022/06/11 04:29:25;;;;;;;21.20;18.30;;;;;;;25.95;52.92;99704.63;1742456;81;21525;-64
2022/06/11 04:31:53;;;;;;;19.73;17.62;;;;;;;25.97;52.83;99702.45;1749507;81;21098;-63
2022/06/11 04:34:20;;;;;;;19.73;17.87;;;;;;;25.99;52.81;99704.36;1750499;82;21017;-64
2022/06/11 04:36:48;;;;;;;20.32;18.42;;;;;;;26.03;52.76;99704.08;1750544;81;21528;-63
2022/06/11 04:39:17;;;;;;;20.20;18.20;;;;;;;26.07;52.88;99708.45;1722201;81;21053;-63
2022/06/11 04:41:43;;;;;;;20.27;18.17;;;;;;;26.12;52.85;99709.01;1747340;81;21585;-63
2022/06/11 04:44:10;;;;;;;21.68;18.15;;;;;;;26.15;52.71;99711.17;1749358;81;21139;-63
2022/06/11 04:46:38;;;;;;;21.37;19.17;;;;;;;26.17;52.61;99710.35;1748665;81;21005;-63
2022/06/11 04:49:05;;;;;;;21.30;18.40;;;;;;;26.20;52.67;99705.73;1752198;81;21022;-62
2022/06/11 04:51:32;;;;;;;22.52;19.87;;;;;;;26.23;52.64;99707.89;1750153;81;21041;-63
2022/06/11 04:53:58;;;;;;;20.70;18.70;;;;;;;26.25;52.51;99710.64;1750750;81;21530;-63
2022/06/11 04:56:27;;;;;;;21.07;18.77;;;;;;;26.29;52.38;99714.45;1735143;81;21147;-63
2022/06/11 04:58:54;;;;;;;20.85;18.50;;;;;;;26.31;52.28;99710.09;1735521;82;21050;-63
2022/06/11 05:01:21;;;;;;;20.68;18.65;;;;;;;26.34;52.30;99712.25;1736277;81;21060;-63
2022/06/11 05:03:48;;;;;;;21.60;19.27;;;;;;;26.36;52.26;99715.52;1729693;82;21082;-64
2022/06/11 05:06:18;;;;;;;21.97;19.55;;;;;;;26.39;52.20;99707.36;1733949;81;21054;-63
2022/06/11 05:08:44;;;;;;;21.20;18.98;;;;;;;26.41;52.17;99711.44;1730030;82;21126;-63
2022/06/11 05:11:11;;;;;;;21.45;19.25;;;;;;;26.43;52.14;99713.89;1728723;82;21042;-63
2022/06/11 05:13:39;;;;;;;21.68;19.52;;;;;;;26.45;52.10;99715.24;1733636;82;21045;-63
2022/06/11 05:16:06;;;;;;;20.85;18.87;;;;;;;26.47;52.07;99711.70;1735834;82;21510;-63
2022/06/11 05:18:34;;;;;;;21.75;19.57;;;;;;;26.49;52.08;99712.23;1737093;82;21018;-64
2022/06/11 05:21:02;;;;;;;21.65;18.45;;;;;;;26.52;52.13;99718.23;1723373;82;21781;-64
2022/06/11 05:23:28;;;;;;;21.68;19.27;;;;;;;26.54;52.08;99720.13;1723576;82;21043;-64
2022/06/11 05:25:55;;;;;;;22.15;19.80;;;;;;;26.55;52.10;99716.33;1736040;82;21002;-64
2022/06/11 05:28:26;;;;;;;23.22;20.27;;;;;;;26.57;51.99;99725.84;1723564;82;21491;-64
2022/06/11 05:30:54;;;;;;;20.97;18.80;;;;;;;26.59;51.79;99722.33;1736637;82;21493;-63
2022/06/11 05:33:21;;;;;;;19.00;17.00;;;;;;;26.61;51.82;99724.79;1713098;82;21518;-63
2022/06/11 05:35:48;;;;;;;19.50;17.42;;;;;;;26.64;51.76;99724.25;1737013;82;21120;-63
2022/06/11 05:38:18;;;;;;;18.90;16.90;;;;;;;26.66;51.26;99730.24;1722124;82;21030;-63
2022/06/11 05:40:48;;;;;;;18.25;16.45;;;;;;;26.68;50.62;99726.70;1723964;82;21553;-64
2022/06/11 05:43:15;;;;;;;17.57;15.68;;;;;;;26.70;50.22;99720.98;1733312;82;21078;-64
2022/06/11 05:45:52;;;;;;;17.50;15.80;;;;;;;26.72;50.08;99726.41;1736972;82;23162;-64
2022/06/11 05:48:22;;;;;;;17.12;15.43;;;;;;;26.75;49.81;99722.31;1727630;82;21711;-64
2022/06/11 05:50:50;;;;;;;16.77;15.15;;;;;;;26.77;49.77;99729.66;1737053;82;21046;-64
2022/06/11 05:53:19;;;;;;;17.05;15.30;;;;;;;26.78;49.71;99721.77;1738433;82;20995;-64
2022/06/11 05:55:46;;;;;;;17.50;14.95;;;;;;;26.81;49.68;99730.73;1710655;82;21014;-64
2022/06/11 05:58:20;;;;;;;16.75;15.10;;;;;;;26.82;49.52;99720.92;1733939;81;21131;-63
2022/06/11 06:00:49;;;;;;;17.27;15.53;;;;;;;26.84;49.32;99721.47;1725734;80;21094;-63
2022/06/11 06:03:16;;;;;;;17.15;14.55;;;;;;;26.87;49.20;99721.48;1732013;82;21035;-64
2022/06/11 06:05:43;;;;;;;16.75;14.10;;;;;;;26.89;49.16;99720.66;1743433;82;21043;-64
2022/06/11 06:08:11;;;;;;;15.53;13.93;;;;;;;26.92;49.17;99723.36;1714605;82;21019;-64
2022/06/11 06:10:39;;;;;;;16.55;14.95;;;;;;;26.94;48.93;99726.63;1715041;82;21080;-63
2022/06/11 06:13:45;;;;;;;16.60;14.87;;;;;;;26.96;48.74;99725.80;1722599;81;21078;-64
2022/06/11 06:15:34;;;;;;;16.05;14.38;;;;;;;26.98;48.88;99724.42;1740255;82;21018;-64
2022/06/11 06:18:03;;;;;;;16.35;14.65;;;;;;;27.00;49.42;99726.32;1738861;82;20999;-64
2022/06/11 06:20:29;;;;;;;16.70;15.05;;;;;;;27.03;49.96;99727.14;1733982;81;21010;-64
2022/06/11 06:22:57;;;;;;;16.82;15.03;;;;;;;27.05;50.43;99720.05;1721572;81;21148;-63
2022/06/11 06:25:24;;;;;;;16.57;14.98;;;;;;;27.07;50.64;99721.95;1737421;82;21078;-64
2022/06/11 06:27:50;;;;;;;15.88;14.13;;;;;;;27.09;50.80;99717.59;1729682;82;21114;-64
2022/06/11 06:30:18;;;;;;;16.25;14.60;;;;;;;27.09;50.89;99718.40;1733015;82;21045;-63
2022/06/11 06:32:44;;;;;;;15.30;13.80;;;;;;;27.12;50.88;99717.86;1728406;82;21082;-64
2022/06/11 06:35:11;;;;;;;15.85;14.25;;;;;;;27.13;51.01;99717.30;1742500;82;21145;-64
2022/06/11 06:37:37;;;;;;;16.17;14.63;;;;;;;27.15;51.15;99721.92;1732854;82;21085;-62
2022/06/11 06:40:06;;;;;;;15.60;14.18;;;;;;;27.16;51.05;99720.81;1729167;81;21570;-62
2022/06/11 06:42:33;;;;;;;19.25;15.18;;;;;;;27.17;50.99;99725.19;1720114;81;21015;-62
2022/06/11 06:45:00;;;;;;;16.20;14.58;;;;;;;27.19;51.01;99722.44;1728798;82;21042;-62
2022/06/11 06:47:26;;;;;;;16.95;14.95;;;;;;;27.20;51.01;99717.83;1734738;82;22071;-64
2022/06/11 06:49:54;;;;;;;14.83;13.32;;;;;;;27.21;51.17;99714.80;1715691;82;21061;-63
2022/06/11 06:52:22;;;;;;;15.80;14.23;;;;;;;27.24;51.22;99721.63;1724057;82;21066;-63
2022/06/11 06:54:50;;;;;;;14.87;13.35;;;;;;;27.24;51.13;99721.10;1724678;81;21058;-61
2022/06/11 06:57:16;;;;;;;16.65;13.13;;;;;;;27.26;51.07;99725.72;1735438;81;21538;-63
2022/06/11 06:59:43;;;;;;;16.48;13.20;;;;;;;27.27;50.96;99727.89;1733274;81;21450;-62
2022/06/11 07:02:10;;;;;;;15.28;12.47;;;;;;;27.29;51.13;99727.63;1749970;81;21041;-63
2022/06/11 07:04:37;;;;;;;14.03;12.68;;;;;;;27.30;51.00;99724.63;1763167;80;21009;-61
2022/06/11 07:07:05;;;;;;;15.35;12.78;;;;;;;27.31;50.78;99726.23;1775526;80;21041;-62
2022/06/11 07:09:31;;;;;;;15.95;13.40;;;;;;;27.32;50.76;99721.06;1745223;81;21033;-62
2022/06/11 07:12:00;;;;;;;15.55;13.62;;;;;;;27.35;50.77;99730.06;1753306;81;21148;-61
2022/06/11 07:14:28;;;;;;;19.20;13.08;;;;;;;27.36;50.89;99722.69;1756695;81;21010;-60
2022/06/11 07:16:56;;;;;;;22.05;15.45;;;;;;;27.38;50.79;99727.31;1756710;81;21014;-62
2022/06/11 07:19:28;;;;;;;31.70;18.65;;;;;;;27.38;50.90;99725.39;1748605;80;21092;-61
2022/06/11 07:21:57;;;;;;;37.07;20.00;;;;;;;27.39;50.75;99730.30;1757029;81;21085;-62
2022/06/11 07:24:27;;;;;;;33.73;19.15;;;;;;;27.40;50.74;99726.48;1719916;83;22010;-62
2022/06/11 07:26:59;;;;;;;40.48;21.75;;;;;;;27.41;50.59;99730.83;1702637;84;21043;-62
2022/06/11 07:29:31;;;;;;;32.40;19.65;;;;;;;27.41;50.37;99726.21;1702697;84;21089;-61
2022/06/11 07:32:06;;;;;;;27.30;17.85;;;;;;;27.41;50.47;99722.64;1702714;84;21071;-61
2022/06/11 07:34:35;;;;;;;30.12;18.20;;;;;;;27.41;50.37;99732.19;1702689;84;21027;-63
2022/06/11 07:37:03;;;;;;;30.77;19.52;;;;;;;27.42;50.23;99734.64;1701579;84;21261;-61
2022/06/11 07:39:30;;;;;;;32.28;18.57;;;;;;;27.43;50.09;99732.76;1701860;84;22220;-61
2022/06/11 07:41:57;;;;;;;27.90;16.65;;;;;;;27.43;50.00;99729.47;1695299;84;21039;-61
2022/06/11 07:44:23;;;;;;;29.65;17.48;;;;;;;27.44;49.90;99728.92;1702708;84;21094;-61
2022/06/11 07:46:50;;;;;;;29.10;17.82;;;;;;;27.45;49.87;99730.56;1702614;84;21071;-60
2022/06/11 07:49:16;;;;;;;33.15;18.02;;;;;;;27.45;49.83;99730.00;1702828;84;21758;-60
2022/06/11 07:51:44;;;;;;;26.40;16.75;;;;;;;27.46;49.64;99727.53;1702474;84;21051;-62
2022/06/11 07:54:11;;;;;;;26.35;17.42;;;;;;;27.47;49.73;99722.91;1701858;84;21003;-60
2022/06/11 07:56:38;;;;;;;26.80;15.40;;;;;;;27.49;49.46;99729.42;1701616;84;21074;-60
2022/06/11 07:59:06;;;;;;;27.60;15.93;;;;;;;27.49;49.51;99723.97;1701971;84;21028;-62
2022/06/11 08:01:33;;;;;;;25.72;15.28;;;;;;;27.49;49.35;99722.61;1678884;85;21116;-61
2022/06/11 08:03:59;;;;;;;23.65;15.10;;;;;;;27.49;49.16;99720.72;1721565;83;21030;-60
2022/06/11 08:06:26;;;;;;;21.65;13.88;;;;;;;27.50;49.12;99734.61;1725364;81;21597;-61
2022/06/11 08:08:53;;;;;;;20.27;13.62;;;;;;;27.50;49.03;99723.70;1713567;83;21640;-61
2022/06/11 08:11:20;;;;;;;19.85;13.65;;;;;;;27.50;48.62;99726.42;1720457;82;21038;-61
2022/06/11 08:13:48;;;;;;;18.42;12.93;;;;;;;27.52;48.55;99724.78;1740435;81;21054;-62
2022/06/11 08:16:15;;;;;;;17.25;12.45;;;;;;;27.52;48.36;99719.33;1750518;82;21007;-61
2022/06/11 08:18:42;;;;;;;16.70;12.50;;;;;;;27.52;48.01;99719.33;1751446;82;21081;-61
2022/06/11 08:21:08;;;;;;;18.42;12.58;;;;;;;27.51;47.86;99714.44;1715265;83;21076;-62
2022/06/11 08:23:36;;;;;;;14.05;11.35;;;;;;;27.52;47.78;99720.14;1751454;82;21053;-62
2022/06/11 08:26:03;;;;;;;15.75;11.63;;;;;;;27.54;47.98;99719.30;1751348;82;21149;-62
2022/06/11 08:28:30;;;;;;;14.43;11.35;;;;;;;27.54;47.77;99720.67;1750378;82;21014;-61
2022/06/11 08:30:56;;;;;;;12.47;10.72;;;;;;;27.55;47.76;99710.04;1751316;82;21094;-62
2022/06/11 08:33:23;;;;;;;16.15;11.50;;;;;;;27.56;47.61;99717.11;1730689;82;21010;-61
2022/06/11 08:35:50;;;;;;;18.00;11.10;;;;;;;27.57;47.63;99718.76;1718673;81;21037;-61
2022/06/11 08:38:17;;;;;;;17.00;11.45;;;;;;;27.59;47.60;99716.56;1713628;83;21253;-62
2022/06/11 08:40:50;;;;;;;16.20;10.43;;;;;;;27.61;47.82;99711.63;1732085;82;21003;-62
2022/06/11 08:43:36;;;;;;;12.40;10.45;;;;;;;27.63;47.73;99703.17;1751422;82;21022;-60
2022/06/11 08:46:11;;;;;;;15.43;10.23;;;;;;;27.64;47.72;99702.90;1721445;83;21021;-61
2022/06/11 08:49:03;;;;;;;15.25;10.63;;;;;;;27.67;47.82;99700.14;1741518;82;21971;-63
2022/06/11 08:52:00;;;;;;;14.15;10.20;;;;;;;27.67;47.76;99698.78;1721357;83;21010;-61
2022/06/11 08:54:30;;;;;;;13.85;9.73;;;;;;;27.68;47.62;99702.31;1721356;83;21041;-62
2022/06/11 08:57:21;;;;;;;14.53;9.85;;;;;;;27.69;47.76;99698.50;1731260;80;21003;-63
2022/06/11 09:00:02;;;;;;;12.45;10.03;;;;;;;27.68;47.80;99697.69;1730289;80;21054;-62
2022/06/11 09:02:55;;;;;;;17.70;10.48;;;;;;;27.68;47.71;99700.42;1744588;80;21109;-62
2022/06/11 09:06:16;;;;;;;13.22;9.65;;;;;;;27.70;47.81;99695.50;1728519;81;21346;-62
2022/06/11 09:09:03;;;;;;;14.13;10.20;;;;;;;27.71;48.01;99694.38;1750994;82;20987;-62
2022/06/11 09:11:40;;;;;;;12.73;9.53;;;;;;;27.71;47.88;99693.58;1741858;80;21077;-63
2022/06/11 09:14:37;;;;;;;15.18;10.10;;;;;;;27.71;48.16;99696.30;1731203;82;20994;-62
2022/06/11 09:17:22;;;;;;;17.37;11.43;;;;;;;27.71;47.49;99690.84;1743308;80;21025;-63
2022/06/11 09:20:06;;;;;;;22.02;13.20;;;;;;;27.71;47.45;99691.66;1729642;82;21091;-63
2022/06/11 09:23:17;;;;;;;39.63;17.85;;;;;;;27.73;47.66;99702.30;1742800;80;20987;-62
2022/06/11 09:26:23;;;;;;;33.23;17.87;;;;;;;27.75;48.14;99693.27;1743312;80;21193;-61
2022/06/11 09:29:16;;;;;;;29.70;17.60;;;;;;;27.74;48.25;99684.28;1721292;83;21018;-62
2022/06/11 09:31:54;;;;;;;39.25;18.05;;;;;;;27.77;48.19;99684.25;1721729;83;21498;-62
2022/06/11 09:34:41;;;;;;;31.62;17.50;;;;;;;27.79;47.93;99678.77;1721640;81;21113;-62
2022/06/11 09:37:16;;;;;;;37.30;17.00;;;;;;;27.81;47.95;99673.02;1721589;83;21585;-62
2022/06/11 09:40:20;;;;;;;32.30;16.48;;;;;;;27.82;47.83;99670.02;1724114;82;21522;-62
2022/06/11 09:42:55;;;;;;;26.80;16.10;;;;;;;27.86;48.11;99674.36;1750862;81;21029;-61
2022/06/11 09:45:49;;;;;;;23.22;13.98;;;;;;;27.88;48.16;99674.92;1751334;81;21033;-62
2022/06/11 09:48:50;;;;;;;27.30;15.03;;;;;;;27.90;47.57;99670.55;1739234;82;21918;-62
2022/06/11 09:51:25;;;;;;;24.75;12.95;;;;;;;27.93;47.57;99673.53;1743212;82;21525;-62
2022/06/11 09:54:43;;;;;;;26.05;14.00;;;;;;;27.95;47.48;99671.86;1722803;82;21046;-63
2022/06/11 09:57:27;;;;;;;21.40;12.25;;;;;;;28.00;47.43;99666.36;1730616;81;21582;-61
2022/06/11 09:59:59;;;;;;;18.20;12.80;;;;;;;28.03;47.14;99678.09;1706219;82;21061;-62
2022/06/11 10:03:03;;;;;;;22.73;13.50;;;;;;;28.07;47.03;99668.22;1714083;83;21852;-61
2022/06/11 10:06:07;;;;;;;15.75;12.18;;;;;;;28.11;47.28;99663.01;1713652;83;21042;-62
2022/06/11 10:08:44;;;;;;;20.20;12.80;;;;;;;28.16;47.28;99664.31;1714280;82;21037;-63
2022/06/11 10:11:25;;;;;;;16.57;10.68;;;;;;;28.18;46.96;99664.84;1713697;83;21062;-62
2022/06/11 10:14:29;;;;;;;19.75;11.15;;;;;;;28.23;46.92;99669.70;1714463;82;21037;-62
2022/06/11 10:17:21;;;;;;;15.95;11.63;;;;;;;28.27;46.79;99663.68;1713843;83;21163;-62
2022/06/11 10:19:55;;;;;;;18.40;11.35;;;;;;;28.32;46.38;99660.34;1712346;83;21073;-62
2022/06/11 10:22:27;;;;;;;16.70;11.33;;;;;;;28.34;46.23;99658.14;1722987;82;21034;-62
2022/06/11 10:25:25;;;;;;;18.42;11.80;;;;;;;28.39;46.35;99663.53;1743036;81;21525;-61
2022/06/11 10:28:03;;;;;;;16.10;10.43;;;;;;;28.42;46.07;99658.06;1741426;82;21026;-63
2022/06/11 10:30:45;;;;;;;12.93;10.25;;;;;;;28.47;45.95;99657.99;1743459;82;22266;-63
2022/06/11 10:33:36;;;;;;;15.20;10.58;;;;;;;28.51;46.22;99656.38;1742695;81;21038;-61
2022/06/11 10:36:14;;;;;;;11.08;9.93;;;;;;;28.55;46.12;99656.05;1740502;82;21037;-62
2022/06/11 10:39:19;;;;;;;14.47;10.40;;;;;;;28.60;45.72;99654.61;1742825;81;20999;-63
2022/06/11 10:42:07;;;;;;;15.50;9.23;;;;;;;28.66;45.62;99651.83;1707729;84;21601;-62
2022/06/11 10:44:51;;;;;;;15.08;9.80;;;;;;;28.71;45.50;99644.95;1741804;81;21236;-62
2022/06/11 10:47:26;;;;;;;13.50;10.08;;;;;;;28.74;45.55;99642.45;1718654;82;21002;-62
2022/06/11 10:50:03;;;;;;;11.60;9.08;;;;;;;28.79;45.69;99642.94;1710681;82;20973;-62
2022/06/11 10:52:50;;;;;;;15.95;10.03;;;;;;;28.85;44.71;99642.32;1713728;83;21594;-61
2022/06/11 10:55:27;;;;;;;12.37;9.60;;;;;;;28.90;44.93;99643.08;1714795;81;21093;-63
2022/06/11 10:57:54;;;;;;;31.55;15.70;;;;;;;28.95;45.04;99635.34;1674535;82;21129;-62
2022/06/11 11:00:26;;;;;;;51.15;21.75;;;;;;;29.00;44.54;99650.34;1727493;81;21014;-62
2022/06/11 11:03:04;;;;;;;55.83;22.80;;;;;;;29.06;44.52;99642.32;1726821;83;21576;-62
2022/06/11 11:05:54;;;;;;;60.12;25.12;;;;;;;29.11;44.35;99636.80;1723575;81;21058;-62
2022/06/11 11:08:22;;;;;;;61.60;24.70;;;;;;;29.18;44.61;99634.52;1665421;84;21105;-61
2022/06/11 11:10:51;;;;;;;55.88;22.98;;;;;;;29.24;44.67;99633.90;1739296;81;21206;-61
2022/06/11 11:13:34;;;;;;;51.20;22.80;;;;;;;29.30;44.51;99631.91;1756795;81;21049;-61
2022/06/11 11:16:22;;;;;;;48.38;23.00;;;;;;;29.36;44.53;99627.98;1756943;81;21533;-62
2022/06/11 11:19:03;;;;;;;51.00;19.98;;;;;;;29.42;44.57;99628.19;1728650;81;21022;-62
2022/06/11 11:21:40;;;;;;;40.55;19.40;;;;;;;29.48;44.65;99624.27;1724843;81;21080;-62
2022/06/11 11:24:16;;;;;;;39.73;17.60;;;;;;;29.54;44.59;99618.97;1710999;82;21255;-61
2022/06/11 11:26:51;;;;;;;31.75;16.80;;;;;;;29.60;44.42;99615.03;1726597;83;21050;-62
2022/06/11 11:29:28;;;;;;;27.48;15.08;;;;;;;29.68;44.32;99616.84;1726876;82;21524;-61
2022/06/11 11:31:58;;;;;;;28.02;15.32;;;;;;;29.73;44.49;99609.39;1726695;82;21054;-62
2022/06/11 11:34:28;;;;;;;29.67;14.60;;;;;;;29.77;44.34;99610.42;1736615;81;21010;-61
2022/06/11 11:37:01;;;;;;;23.32;15.15;;;;;;;29.82;44.08;99605.97;1739993;81;21108;-61
2022/06/11 11:39:30;;;;;;;24.30;14.13;;;;;;;29.87;44.01;99610.00;1680583;83;21065;-63
2022/06/11 11:42:06;;;;;;;23.10;13.50;;;;;;;29.91;43.99;99611.83;1725257;83;21369;-63
2022/06/11 11:44:50;;;;;;;22.90;13.05;;;;;;;29.94;44.22;99608.50;1723968;82;21038;-62
2022/06/11 11:47:34;;;;;;;18.77;11.75;;;;;;;29.98;44.00;99605.41;1725190;82;21113;-61
2022/06/11 11:50:27;;;;;;;19.55;12.30;;;;;;;30.01;43.83;99598.51;1725144;83;22111;-62